createdAt,value
2019-02-22T00:01:21.897Z,15.47
2019-02-22T00:03:51.020Z,14.17
2019-02-22T00:06:19.882Z,14.20
2019-02-22T00:08:48.925Z,15.43
2019-02-22T00:11:17.813Z,14.70
2019-02-22T00:13:46.577Z,13.23
2019-02-22T00:16:15.345Z,12.33
2019-02-22T00:18:44.140Z,13.37
2019-02-22T00:21:12.941Z,13.80
2019-02-22T00:23:41.725Z,13.33
2019-02-22T00:26:11.228Z,12.70
2019-02-22T00:28:40.405Z,14.30
2019-02-22T00:31:09.193Z,15.03
2019-02-22T00:33:38.044Z,16.10
2019-02-22T00:36:06.924Z,15.90
2019-02-22T00:38:36.021Z,17.03
2019-02-22T00:41:04.784Z,15.17
2019-02-22T00:43:33.750Z,14.53
2019-02-22T00:46:02.521Z,15.33
2019-02-22T00:48:31.297Z,15.90
2019-02-22T00:51:00.160Z,14.90
2019-02-22T00:53:28.949Z,15.83
2019-02-22T00:55:57.721Z,14.70
2019-02-22T00:58:26.511Z,15.13
2019-02-22T01:00:55.540Z,15.20
2019-02-22T01:03:24.557Z,14.17
2019-02-22T01:05:53.357Z,13.63
2019-02-22T01:08:22.143Z,14.13
2019-02-22T01:10:51.183Z,14.53
2019-02-22T01:13:20.256Z,14.67
2019-02-22T01:15:49.041Z,14.83
2019-02-22T01:18:17.922Z,14.33
2019-02-22T01:20:53.964Z,14.53
2019-02-22T01:23:17.354Z,14.77
2019-02-22T01:25:46.142Z,15.10
2019-02-22T01:28:14.941Z,15.57
2019-02-22T01:30:43.733Z,14.47
2019-02-22T01:33:12.895Z,15.17
2019-02-22T01:35:41.953Z,15.57
2019-02-22T01:38:10.823Z,16.50
2019-02-22T01:40:43.592Z,15.87
2019-02-22T01:43:10.482Z,14.40
2019-02-22T01:45:39.284Z,15.30
2019-02-22T01:48:08.109Z,14.93
2019-02-22T01:50:37.164Z,15.03
2019-02-22T01:53:06.229Z,14.90
2019-02-22T01:55:35.097Z,15.07
2019-02-22T01:58:04.014Z,15.37
2019-02-22T02:00:32.812Z,15.53
2019-02-22T02:03:01.862Z,14.37
2019-02-22T02:05:30.673Z,15.83
2019-02-22T02:07:59.630Z,15.77
2019-02-22T02:10:28.444Z,14.53
2019-02-22T02:12:57.621Z,17.60
2019-02-22T02:15:26.520Z,16.03
2019-02-22T02:17:55.405Z,15.30
2019-02-22T02:20:24.629Z,15.63
2019-02-22T02:22:53.752Z,15.10
2019-02-22T02:25:22.636Z,16.23
2019-02-22T02:27:51.789Z,16.23
2019-02-22T02:30:20.651Z,16.37
2019-02-22T02:32:49.439Z,17.57
2019-02-22T02:35:18.265Z,15.17
2019-02-22T02:37:47.201Z,16.60
2019-02-22T02:40:16.013Z,17.17
2019-02-22T02:42:44.883Z,17.23
2019-02-22T02:45:13.997Z,16.93
2019-02-22T02:47:43.105Z,19.17
2019-02-22T02:50:17.769Z,17.17
2019-02-22T02:52:46.789Z,20.30
2019-02-22T02:55:29.262Z,17.73
2019-02-22T02:57:58.192Z,19.47
2019-02-22T03:00:27.247Z,18.03
2019-02-22T03:02:56.049Z,15.90
2019-02-22T03:05:43.801Z,17.83
2019-02-22T03:08:12.673Z,16.17
2019-02-22T03:10:41.456Z,17.60
2019-02-22T03:13:10.254Z,16.53
2019-02-22T03:15:39.381Z,16.03
2019-02-22T03:18:08.484Z,16.20
2019-02-22T03:20:37.283Z,17.57
2019-02-22T03:23:06.317Z,17.50
2019-02-22T03:25:35.102Z,18.23
2019-02-22T03:28:03.959Z,19.33
2019-02-22T03:30:32.830Z,19.77
2019-02-22T03:33:01.654Z,19.10
2019-02-22T03:35:30.990Z,20.20
2019-02-22T03:37:59.772Z,20.30
2019-02-22T03:40:28.562Z,21.53
2019-02-22T03:42:57.425Z,21.40
2019-02-22T03:45:26.251Z,21.17
2019-02-22T03:47:55.293Z,21.03
2019-02-22T03:50:24.157Z,21.23
2019-02-22T03:53:05.206Z,21.67
2019-02-22T03:55:34.069Z,20.67
2019-02-22T03:58:03.179Z,20.90
2019-02-22T04:00:32.038Z,17.73
2019-02-22T04:03:01.456Z,19.90
2019-02-22T04:05:30.505Z,20.20
2019-02-22T04:07:59.291Z,19.40
2019-02-22T04:10:28.093Z,18.47
2019-02-22T04:12:56.865Z,19.90
2019-02-22T04:15:25.661Z,19.10
2019-02-22T04:17:54.425Z,19.33
2019-02-22T04:20:23.488Z,19.10
2019-02-22T04:22:52.330Z,20.60
2019-02-22T04:25:21.122Z,19.00
2019-02-22T04:27:50.472Z,17.93
2019-02-22T04:30:19.263Z,18.90
2019-02-22T04:32:48.122Z,18.13
2019-02-22T04:35:17.000Z,19.33
2019-02-22T04:37:46.334Z,17.87
2019-02-22T04:40:15.201Z,19.67
2019-02-22T04:42:43.972Z,19.40
2019-02-22T04:45:12.840Z,19.30
2019-02-22T04:47:41.643Z,18.93
2019-02-22T04:50:10.499Z,18.87
2019-02-22T04:52:39.530Z,18.57
2019-02-22T04:55:08.721Z,18.87
2019-02-22T04:57:37.496Z,17.80
2019-02-22T05:00:06.864Z,16.30
2019-02-22T05:02:35.731Z,17.17
2019-02-22T05:05:05.650Z,17.53
2019-02-22T05:07:34.510Z,18.07
2019-02-22T05:10:03.947Z,18.57
2019-02-22T05:12:32.720Z,18.40
2019-02-22T05:15:12.100Z,19.93
2019-02-22T05:17:35.590Z,17.03
2019-02-22T05:20:03.068Z,18.57
2019-02-22T05:22:31.872Z,17.93
2019-02-22T05:25:00.658Z,18.50
2019-02-22T05:27:30.010Z,17.17
2019-02-22T05:29:58.826Z,17.57
2019-02-22T05:32:27.856Z,17.23
2019-02-22T05:34:56.654Z,18.07
2019-02-22T05:37:25.513Z,18.10
2019-02-22T05:39:54.631Z,16.03
2019-02-22T05:42:23.774Z,18.50
2019-02-22T05:44:52.590Z,18.97
2019-02-22T05:47:21.369Z,18.70
2019-02-22T05:49:50.209Z,19.70
2019-02-22T05:52:19.103Z,19.47
2019-02-22T05:54:48.121Z,19.53
2019-02-22T05:57:17.201Z,20.70
2019-02-22T05:59:46.053Z,21.53
2019-02-22T06:02:15.086Z,19.93
2019-02-22T06:04:43.916Z,18.43
2019-02-22T06:07:14.608Z,19.50
2019-02-22T06:09:43.624Z,20.87
2019-02-22T06:12:12.664Z,21.50
2019-02-22T06:14:41.690Z,20.87
2019-02-22T06:17:14.513Z,22.20
2019-02-22T06:19:41.192Z,19.70
2019-02-22T06:22:10.310Z,20.97
2019-02-22T06:24:39.086Z,20.63
2019-02-22T06:27:08.141Z,19.63
2019-02-22T06:29:37.083Z,23.87
2019-02-22T06:32:05.932Z,21.67
2019-02-22T06:34:34.763Z,22.20
2019-02-22T06:37:04.119Z,21.53
2019-02-22T06:39:32.894Z,21.57
2019-02-22T06:42:01.698Z,23.57
2019-02-22T06:44:30.814Z,22.83
2019-02-22T06:46:59.609Z,23.90
2019-02-22T06:49:28.493Z,23.13
2019-02-22T06:51:57.288Z,24.37
2019-02-22T06:54:26.212Z,22.50
2019-02-22T06:56:55.109Z,25.30
2019-02-22T06:59:23.868Z,23.57
2019-02-22T07:01:52.732Z,24.40
2019-02-22T07:04:21.857Z,25.97
2019-02-22T07:06:50.659Z,24.60
2019-02-22T07:09:19.677Z,27.70
2019-02-22T07:12:00.724Z,25.50
2019-02-22T07:14:29.651Z,25.00
2019-02-22T07:16:58.441Z,27.73
2019-02-22T07:19:27.554Z,26.23
2019-02-22T07:21:56.469Z,27.57
2019-02-22T07:24:25.410Z,26.97
2019-02-22T07:26:54.260Z,27.07
2019-02-22T07:29:23.678Z,27.50
2019-02-22T07:31:52.445Z,30.13
2019-02-22T07:34:21.232Z,27.03
2019-02-22T07:36:50.057Z,28.77
2019-02-22T07:39:27.374Z,29.80
2019-02-22T07:41:49.661Z,28.37
2019-02-22T07:44:18.552Z,28.07
2019-02-22T07:46:47.349Z,31.33
2019-02-22T07:49:23.006Z,30.03
2019-02-22T07:51:51.884Z,27.57
2019-02-22T07:54:20.804Z,29.60
2019-02-22T07:56:49.606Z,30.83
2019-02-22T07:59:18.558Z,30.43
2019-02-22T08:01:48.306Z,28.80
2019-02-22T08:04:17.168Z,32.10
2019-02-22T08:06:45.948Z,31.23
2019-02-22T08:09:15.114Z,31.40
2019-02-22T08:11:43.946Z,31.57
2019-02-22T08:14:12.924Z,34.30
2019-02-22T08:16:41.701Z,33.27
2019-02-22T08:19:11.335Z,33.57
2019-02-22T08:21:40.272Z,33.30
2019-02-22T08:24:09.143Z,35.33
2019-02-22T08:26:38.193Z,34.60
2019-02-22T08:29:07.269Z,40.23
2019-02-22T08:31:36.196Z,36.50
2019-02-22T08:34:05.284Z,41.17
2019-02-22T08:36:34.080Z,38.27
2019-02-22T08:39:04.874Z,40.33
2019-02-22T08:41:33.913Z,36.70
2019-02-22T08:44:02.840Z,38.27
2019-02-22T08:46:31.660Z,36.50
2019-02-22T08:49:00.669Z,35.30
2019-02-22T08:51:29.452Z,37.03
2019-02-22T08:53:58.262Z,38.17
2019-02-22T08:56:27.356Z,38.87
2019-02-22T08:58:56.655Z,39.27
2019-02-22T09:01:25.511Z,35.67
2019-02-22T09:03:54.551Z,39.43
2019-02-22T09:06:23.649Z,39.60
2019-02-22T09:08:52.431Z,41.53
2019-02-22T09:11:21.289Z,40.73
2019-02-22T09:13:50.085Z,40.67
2019-02-22T09:16:18.895Z,41.20
2019-02-22T09:18:47.684Z,41.97
2019-02-22T09:21:16.533Z,44.20
2019-02-22T09:23:45.586Z,43.80
2019-02-22T09:26:14.663Z,43.53
2019-02-22T09:28:43.457Z,43.53
2019-02-22T09:31:12.227Z,41.37
2019-02-22T09:33:41.034Z,41.33
2019-02-22T09:36:09.891Z,39.23
2019-02-22T09:38:38.778Z,39.20
2019-02-22T09:41:07.627Z,39.70
2019-02-22T09:43:36.408Z,39.97
2019-02-22T09:46:05.280Z,38.20
2019-02-22T09:48:34.139Z,36.73
2019-02-22T09:51:02.918Z,39.20
2019-02-22T09:53:31.723Z,37.27
2019-02-22T09:56:00.506Z,37.77
2019-02-22T09:58:29.291Z,36.10
2019-02-22T10:00:58.197Z,38.43
2019-02-22T10:03:27.241Z,34.73
2019-02-22T10:05:56.397Z,36.53
2019-02-22T10:08:25.186Z,34.80
2019-02-22T10:10:54.189Z,35.47
2019-02-22T10:13:22.992Z,36.03
2019-02-22T10:15:51.766Z,34.57
2019-02-22T10:18:20.560Z,34.57
2019-02-22T10:20:49.367Z,33.73
2019-02-22T10:23:18.160Z,35.77
2019-02-22T10:25:47.208Z,31.93
2019-02-22T10:28:18.123Z,33.97
2019-02-22T10:30:46.580Z,33.97
2019-02-22T10:33:15.384Z,32.47
2019-02-22T10:35:44.172Z,30.30
2019-02-22T10:38:13.136Z,32.73
2019-02-22T10:40:41.931Z,30.23
2019-02-22T10:43:10.952Z,29.90
2019-02-22T10:45:39.763Z,28.00
2019-02-22T10:48:08.609Z,28.57
2019-02-22T10:50:37.405Z,30.70
2019-02-22T10:53:06.318Z,27.53
2019-02-22T10:55:35.117Z,27.07
2019-02-22T10:58:04.104Z,26.50
2019-02-22T11:00:32.964Z,27.10
2019-02-22T11:03:01.761Z,27.20
2019-02-22T11:05:30.573Z,27.80
2019-02-22T11:07:59.373Z,24.73
2019-02-22T11:10:28.173Z,26.43
2019-02-22T11:12:57.072Z,23.90
2019-02-22T11:15:25.925Z,23.83
2019-02-22T11:17:54.817Z,23.00
2019-02-22T11:20:23.591Z,22.30
2019-02-22T11:22:52.385Z,21.53
2019-02-22T11:25:21.245Z,16.47
2019-02-22T11:27:50.046Z,15.80
2019-02-22T11:30:18.924Z,16.53
2019-02-22T11:32:48.120Z,16.07
2019-02-22T11:35:16.920Z,15.53
2019-02-22T11:37:45.949Z,15.73
2019-02-22T11:40:14.851Z,16.57
2019-02-22T11:42:43.810Z,16.90
2019-02-22T11:45:12.911Z,16.67
2019-02-22T11:47:41.765Z,16.93
2019-02-22T11:50:10.641Z,16.40
2019-02-22T11:52:39.592Z,15.97
2019-02-22T11:55:10.040Z,16.90
2019-02-22T11:57:38.991Z,16.70
2019-02-22T12:00:09.636Z,16.47
2019-02-22T12:02:38.500Z,17.93
2019-02-22T12:05:07.443Z,17.43
2019-02-22T12:07:36.259Z,18.43
2019-02-22T12:10:05.360Z,18.03
2019-02-22T12:12:34.229Z,17.40
2019-02-22T12:15:03.088Z,17.13
2019-02-22T12:17:32.211Z,17.27
2019-02-22T12:20:01.284Z,17.53
2019-02-22T12:22:30.570Z,17.37
2019-02-22T12:24:59.624Z,18.40
2019-02-22T12:27:28.448Z,17.73
2019-02-22T12:29:57.238Z,18.30
2019-02-22T12:32:26.348Z,18.47
2019-02-22T12:34:55.321Z,18.97
2019-02-22T12:37:24.129Z,19.20
2019-02-22T12:39:53.090Z,16.87
2019-02-22T12:42:21.878Z,18.33
2019-02-22T12:44:50.945Z,17.90
2019-02-22T12:47:20.031Z,17.37
2019-02-22T12:49:48.888Z,17.80
2019-02-22T12:52:17.685Z,18.83
2019-02-22T12:54:46.460Z,18.30
2019-02-22T12:57:15.365Z,17.80
2019-02-22T12:59:44.240Z,17.93
2019-02-22T13:02:13.042Z,20.43
2019-02-22T13:04:42.124Z,20.70
2019-02-22T13:07:11.318Z,21.60
2019-02-22T13:09:40.141Z,20.13
2019-02-22T13:12:13.951Z,20.40
2019-02-22T13:14:39.530Z,19.90
2019-02-22T13:17:08.325Z,20.33
2019-02-22T13:19:37.305Z,19.63
2019-02-22T13:22:06.405Z,19.70
2019-02-22T13:24:35.401Z,16.27
2019-02-22T13:27:04.288Z,18.53
2019-02-22T13:29:33.086Z,14.37
2019-02-22T13:32:02.166Z,13.97
2019-02-22T13:34:31.057Z,12.53
2019-02-22T13:36:59.869Z,13.03
2019-02-22T13:39:28.765Z,14.37
2019-02-22T13:41:57.843Z,13.30
2019-02-22T13:44:26.716Z,13.80
2019-02-22T13:46:55.600Z,13.43
2019-02-22T13:49:24.437Z,13.13
2019-02-22T13:51:53.307Z,12.47
2019-02-22T13:54:22.191Z,12.63
2019-02-22T13:56:51.101Z,11.93
2019-02-22T13:59:19.958Z,11.67
2019-02-22T14:01:49.081Z,10.57
2019-02-22T14:04:17.952Z,11.23
2019-02-22T14:06:47.094Z,11.60
2019-02-22T14:09:16.428Z,11.30
2019-02-22T14:11:45.210Z,11.00
2019-02-22T14:14:14.148Z,11.17
2019-02-22T14:16:42.970Z,9.97
2019-02-22T14:19:12.032Z,9.53
2019-02-22T14:21:41.048Z,9.97
2019-02-22T14:24:09.841Z,9.33
2019-02-22T14:26:39.124Z,8.57
2019-02-22T14:29:07.928Z,9.27
2019-02-22T14:31:36.806Z,9.27
2019-02-22T14:34:05.876Z,8.90
2019-02-22T14:36:34.644Z,9.90
2019-02-22T14:39:04.106Z,8.83
2019-02-22T14:41:33.301Z,8.73
2019-02-22T14:44:02.208Z,10.80
2019-02-22T14:46:31.027Z,9.87
2019-02-22T14:49:00.305Z,9.67
2019-02-22T14:51:29.666Z,10.80
2019-02-22T14:53:58.517Z,10.17
2019-02-22T14:56:27.327Z,10.37
2019-02-22T14:58:56.128Z,9.73
2019-02-22T15:01:25.008Z,9.87
2019-02-22T15:03:54.011Z,9.37
2019-02-22T15:06:22.947Z,11.20
2019-02-22T15:08:51.800Z,9.17
2019-02-22T15:11:20.956Z,8.67
2019-02-22T15:13:49.748Z,10.80
2019-02-22T15:16:31.351Z,10.40
2019-02-22T15:19:00.461Z,9.70
2019-02-22T15:21:29.265Z,9.30
2019-02-22T15:23:58.057Z,9.13
2019-02-22T15:26:26.941Z,8.50
2019-02-22T15:28:55.735Z,8.80
2019-02-22T15:31:35.649Z,8.80
2019-02-22T15:33:57.287Z,9.33
2019-02-22T15:36:26.302Z,9.30
2019-02-22T15:38:55.332Z,9.93
2019-02-22T15:41:24.154Z,9.53
2019-02-22T15:43:53.251Z,8.57
2019-02-22T15:46:22.068Z,9.37
2019-02-22T15:48:50.969Z,8.53
2019-02-22T15:51:22.279Z,8.43
2019-02-22T15:53:51.312Z,8.57
2019-02-22T15:56:20.129Z,7.80
2019-02-22T15:58:49.592Z,9.10
2019-02-22T16:01:18.577Z,7.43
2019-02-22T16:03:54.689Z,9.07
2019-02-22T16:06:23.505Z,7.70
2019-02-22T16:08:52.790Z,8.77
2019-02-22T16:11:21.672Z,7.57
2019-02-22T16:13:50.505Z,8.33
2019-02-22T16:16:23.294Z,8.30
2019-02-22T16:18:49.820Z,8.53
2019-02-22T16:21:18.933Z,8.13
2019-02-22T16:23:48.064Z,7.93
2019-02-22T16:26:18.520Z,9.00
2019-02-22T16:28:47.397Z,7.83
2019-02-22T16:31:16.260Z,7.97
2019-02-22T16:33:45.025Z,7.70
2019-02-22T16:36:14.158Z,8.33
2019-02-22T16:38:42.944Z,7.00
2019-02-22T16:41:11.824Z,7.67
2019-02-22T16:43:40.605Z,8.97
2019-02-22T16:46:09.506Z,8.00
2019-02-22T16:48:38.838Z,7.13
2019-02-22T16:51:07.865Z,7.07
2019-02-22T16:53:36.811Z,7.67
2019-02-22T16:56:05.592Z,6.67
2019-02-22T16:58:34.655Z,8.00
2019-02-22T17:01:03.549Z,7.80
2019-02-22T17:03:32.577Z,8.00
2019-02-22T17:06:01.669Z,8.17
2019-02-22T17:08:31.382Z,7.73
2019-02-22T17:11:00.451Z,7.53
2019-02-22T17:13:29.280Z,8.97
2019-02-22T17:15:58.164Z,10.83
2019-02-22T17:18:26.936Z,16.83
2019-02-22T17:20:55.748Z,12.43
2019-02-22T17:23:24.505Z,7.80
2019-02-22T17:25:53.364Z,7.37
2019-02-22T17:28:22.147Z,8.60
2019-02-22T17:30:51.012Z,12.40
2019-02-22T17:33:19.785Z,17.63
2019-02-22T17:35:48.657Z,17.03
2019-02-22T17:38:17.448Z,13.03
2019-02-22T17:40:46.373Z,12.47
2019-02-22T17:43:15.179Z,9.47
2019-02-22T17:45:44.314Z,8.47
2019-02-22T17:48:13.140Z,11.13
2019-02-22T17:50:42.004Z,11.63
2019-02-22T17:53:10.785Z,12.03
2019-02-22T17:55:39.597Z,10.37
2019-02-22T17:58:08.446Z,10.40
2019-02-22T18:00:37.402Z,10.70
2019-02-22T18:03:06.254Z,10.67
2019-02-22T18:05:35.019Z,9.63
2019-02-22T18:08:03.910Z,8.67
2019-02-22T18:10:32.801Z,9.03
2019-02-22T18:13:01.590Z,7.77
2019-02-22T18:15:30.401Z,9.10
2019-02-22T18:17:59.221Z,9.17
2019-02-22T18:20:28.362Z,8.43
2019-02-22T18:22:57.148Z,9.53
2019-02-22T18:25:26.078Z,8.07
2019-02-22T18:27:54.909Z,11.47
2019-02-22T18:30:23.871Z,10.10
2019-02-22T18:32:52.695Z,9.90
2019-02-22T18:35:21.629Z,9.37
2019-02-22T18:37:50.472Z,9.73
2019-02-22T18:40:19.341Z,9.77
2019-02-22T18:42:48.420Z,9.60
2019-02-22T18:45:17.231Z,11.33
2019-02-22T18:47:46.065Z,9.67
2019-02-22T18:50:14.956Z,10.37
2019-02-22T18:52:43.740Z,10.07
2019-02-22T18:55:12.601Z,10.20
2019-02-22T18:57:41.423Z,9.07
2019-02-22T19:00:11.467Z,9.40
2019-02-22T19:02:40.550Z,8.13
2019-02-22T19:05:09.864Z,8.80
2019-02-22T19:07:38.672Z,8.70
2019-02-22T19:10:08.635Z,9.07
2019-02-22T19:12:39.091Z,9.37
2019-02-22T19:15:09.842Z,9.40
2019-02-22T19:17:38.912Z,9.73
2019-02-22T19:20:09.800Z,10.93
2019-02-22T19:22:39.006Z,11.23
2019-02-22T19:25:08.020Z,11.13
2019-02-22T19:27:36.857Z,11.57
2019-02-22T19:30:07.064Z,12.93
2019-02-22T19:32:35.869Z,12.37
2019-02-22T19:35:05.086Z,11.17
2019-02-22T19:37:33.930Z,9.37
2019-02-22T19:40:02.802Z,9.27
2019-02-22T19:42:31.837Z,9.07
2019-02-22T19:45:00.862Z,8.43
2019-02-22T19:47:29.919Z,9.47
2019-02-22T19:49:58.696Z,8.37
2019-02-22T19:52:27.493Z,9.03
2019-02-22T19:54:57.203Z,9.23
2019-02-22T19:57:26.584Z,9.20
2019-02-22T19:59:55.548Z,9.83
2019-02-22T20:02:25.176Z,11.03
2019-02-22T20:04:54.287Z,11.03
2019-02-22T20:07:23.403Z,10.80
2019-02-22T20:09:52.190Z,9.10
2019-02-22T20:12:21.242Z,9.17
2019-02-22T20:14:50.081Z,8.33
2019-02-22T20:17:19.005Z,9.00
2019-02-22T20:19:48.138Z,8.57
2019-02-22T20:22:16.918Z,9.40
2019-02-22T20:24:45.774Z,10.70
2019-02-22T20:27:14.702Z,9.10
2019-02-22T20:29:43.824Z,9.80
2019-02-22T20:32:12.674Z,10.33
2019-02-22T20:34:41.494Z,9.23
2019-02-22T20:37:10.492Z,10.10
2019-02-22T20:39:39.408Z,10.33
2019-02-22T20:42:08.353Z,9.40
2019-02-22T20:44:37.175Z,9.87
2019-02-22T20:47:06.021Z,9.37
2019-02-22T20:49:34.812Z,9.70
2019-02-22T20:52:03.653Z,11.30
2019-02-22T20:54:32.571Z,11.30
2019-02-22T20:57:01.474Z,10.70
2019-02-22T20:59:30.304Z,10.90
2019-02-22T21:01:59.243Z,12.23
2019-02-22T21:04:28.116Z,12.20
2019-02-22T21:06:57.152Z,14.87
2019-02-22T21:09:26.128Z,15.43
2019-02-22T21:11:54.981Z,14.10
2019-02-22T21:14:23.818Z,13.03
2019-02-22T21:16:52.665Z,13.87
2019-02-22T21:19:21.495Z,13.20
2019-02-22T21:21:50.824Z,12.43
2019-02-22T21:24:19.798Z,13.53
2019-02-22T21:26:48.968Z,12.80
2019-02-22T21:29:17.834Z,12.90
2019-02-22T21:31:47.501Z,13.00
2019-02-22T21:34:16.381Z,13.23
2019-02-22T21:36:45.232Z,12.80
2019-02-22T21:39:14.505Z,13.37
2019-02-22T21:41:43.887Z,13.60
2019-02-22T21:44:12.806Z,12.80
2019-02-22T21:46:41.933Z,12.10
2019-02-22T21:49:10.872Z,13.87
2019-02-22T21:51:40.267Z,14.87
2019-02-22T21:54:09.154Z,13.43
2019-02-22T21:56:38.023Z,15.10
2019-02-22T21:59:07.189Z,14.47
2019-02-22T22:01:35.973Z,13.30
2019-02-22T22:04:04.853Z,13.23
2019-02-22T22:06:33.694Z,14.13
2019-02-22T22:09:02.632Z,13.57
2019-02-22T22:11:31.438Z,14.17
2019-02-22T22:14:00.311Z,14.23
2019-02-22T22:16:29.160Z,16.50
2019-02-22T22:18:57.972Z,15.80
2019-02-22T22:21:26.789Z,14.67
2019-02-22T22:23:55.616Z,14.07
2019-02-22T22:26:24.796Z,15.77
2019-02-22T22:28:53.613Z,17.13
2019-02-22T22:31:22.680Z,15.00
2019-02-22T22:33:51.589Z,15.10
2019-02-22T22:36:20.689Z,16.17
2019-02-22T22:38:49.543Z,16.10
2019-02-22T22:41:18.481Z,15.93
2019-02-22T22:43:47.280Z,15.83
2019-02-22T22:46:16.104Z,15.67
2019-02-22T22:48:50.376Z,16.93
2019-02-22T22:51:15.394Z,17.83
2019-02-22T22:53:44.441Z,17.93
2019-02-22T22:56:13.569Z,17.27
2019-02-22T22:58:42.405Z,17.97
2019-02-22T23:01:20.425Z,15.77
2019-02-22T23:03:49.365Z,18.20
2019-02-22T23:06:18.496Z,17.10
2019-02-22T23:08:47.336Z,16.17
2019-02-22T23:11:16.259Z,15.90
2019-02-22T23:13:45.128Z,16.57
2019-02-22T23:16:14.480Z,18.40
2019-02-22T23:18:43.372Z,17.27
2019-02-22T23:21:12.222Z,16.73
2019-02-22T23:23:41.021Z,17.77
2019-02-22T23:26:09.872Z,17.97
2019-02-22T23:28:38.715Z,14.93
2019-02-22T23:31:07.561Z,17.70
2019-02-22T23:33:36.848Z,16.93
2019-02-22T23:36:05.871Z,17.40
2019-02-22T23:38:34.909Z,16.57
2019-02-22T23:41:03.697Z,15.87
2019-02-22T23:43:32.498Z,16.37
2019-02-22T23:46:01.276Z,16.67
2019-02-22T23:48:30.059Z,17.30
2019-02-22T23:50:58.878Z,16.13
2019-02-22T23:53:27.688Z,15.90
2019-02-22T23:55:56.496Z,16.83
2019-02-22T23:58:25.306Z,16.40
